createdAt,value
2023-01-10T00:02:18.237Z,100053.84
2023-01-10T00:04:48.353Z,100053.03
2023-01-10T00:07:15.506Z,100064.16
2023-01-10T00:09:43.219Z,100061.75
2023-01-10T00:12:34.053Z,100061.03
2023-01-10T00:15:01.570Z,100071.44
2023-01-10T00:17:31.560Z,100072.59
2023-01-10T00:19:58.904Z,100079.97
2023-01-10T00:22:26.169Z,100081.97
2023-01-10T00:24:53.559Z,100077.50
2023-01-10T00:27:22.748Z,100090.69
2023-01-10T00:29:53.754Z,100093.28
2023-01-10T00:32:25.341Z,100096.94
2023-01-10T00:34:52.594Z,100092.34
2023-01-10T00:37:19.727Z,100091.34
2023-01-10T00:39:46.879Z,100093.72
2023-01-10T00:42:32.620Z,100099.66
2023-01-10T00:44:59.767Z,100093.72
2023-01-10T00:47:27.268Z,100098.91
2023-01-10T00:49:54.458Z,100099.66
2023-01-10T00:52:21.563Z,100115.13
2023-01-10T00:54:48.790Z,100112.31
2023-01-10T00:57:15.972Z,100115.25
2023-01-10T00:59:43.123Z,100115.13
2023-01-10T01:02:10.193Z,100117.94
2023-01-10T01:04:37.418Z,100127.28
2023-01-10T01:07:04.821Z,100129.78
2023-01-10T01:09:31.916Z,100125.84
2023-01-10T01:11:58.923Z,100135.81
2023-01-10T01:14:26.138Z,100136.53
2023-01-10T01:16:53.239Z,100146.22
2023-01-10T01:19:20.291Z,100151.41
2023-01-10T01:21:47.312Z,100151.19
2023-01-10T01:24:14.312Z,100162.09
2023-01-10T01:26:42.672Z,100166.56
2023-01-10T01:29:09.843Z,100183.09
2023-01-10T01:31:36.987Z,100190.47
2023-01-10T01:34:04.273Z,100197.00
2023-01-10T01:36:31.317Z,100198.56
2023-01-10T01:38:58.397Z,100209.38
2023-01-10T01:41:44.059Z,100210.94
2023-01-10T01:44:17.735Z,100224.56
2023-01-10T01:47:06.516Z,100228.38
2023-01-10T01:49:41.013Z,100228.09
2023-01-10T01:52:23.232Z,100231.22
2023-01-10T01:54:52.240Z,100230.06
2023-01-10T01:57:23.516Z,100238.06
2023-01-10T01:59:53.911Z,100236.31
2023-01-10T02:02:31.390Z,100238.47
2023-01-10T02:05:06.785Z,100242.94
2023-01-10T02:07:41.931Z,100240.53
2023-01-10T02:10:44.318Z,100243.88
2023-01-10T02:13:15.841Z,100250.13
2023-01-10T02:15:43.048Z,100256.25
2023-01-10T02:18:10.862Z,100260.53
2023-01-10T02:21:18.234Z,100268.00
2023-01-10T02:24:14.130Z,100270.59
2023-01-10T02:27:29.578Z,100270.69
2023-01-10T02:30:37.878Z,100269.75
2023-01-10T02:33:58.062Z,100281.16
2023-01-10T02:37:25.255Z,100276.28
2023-01-10T02:40:10.068Z,100285.91
2023-01-10T02:43:26.268Z,100287.03
2023-01-10T02:46:06.398Z,100290.38
2023-01-10T02:48:33.563Z,100287.56
2023-01-10T02:51:39.148Z,100290.47
2023-01-10T02:54:30.670Z,100289.34
2023-01-10T02:57:21.394Z,100293.47
2023-01-10T03:00:14.837Z,100302.56
2023-01-10T03:03:13.884Z,100303.59
2023-01-10T03:06:07.761Z,100317.03
2023-01-10T03:08:56.401Z,100313.59
2023-01-10T03:11:42.230Z,100326.13
2023-01-10T03:14:25.934Z,100332.06
2023-01-10T03:17:06.854Z,100340.91
2023-01-10T03:19:48.547Z,100339.75
2023-01-10T03:22:17.763Z,100351.75
2023-01-10T03:24:51.612Z,100357.69
2023-01-10T03:28:14.207Z,100357.03
2023-01-10T03:31:17.084Z,100366.00
2023-01-10T03:33:44.744Z,100373.03
2023-01-10T03:36:33.286Z,100385.25
2023-01-10T03:39:26.800Z,100389.34
2023-01-10T03:42:20.427Z,100391.47
2023-01-10T03:45:13.563Z,100393.53
2023-01-10T03:47:51.072Z,100398.41
2023-01-10T03:50:24.336Z,100407.47
2023-01-10T03:52:52.042Z,100407.19
2023-01-10T03:55:24.194Z,100404.31
2023-01-10T03:57:51.309Z,100412.66
2023-01-10T04:00:19.813Z,100422.31
2023-01-10T04:02:46.961Z,100422.25
2023-01-10T04:05:14.057Z,100435.75
2023-01-10T04:07:41.390Z,100439.00
2023-01-10T04:10:09.976Z,100441.69
2023-01-10T04:12:37.043Z,100447.97
2023-01-10T04:15:05.397Z,100454.66
2023-01-10T04:17:32.525Z,100456.34
2023-01-10T04:20:02.834Z,100468.31
2023-01-10T04:22:30.009Z,100464.78
2023-01-10T04:24:57.217Z,100485.53
2023-01-10T04:27:24.533Z,100483.50
2023-01-10T04:29:51.641Z,100485.06
2023-01-10T04:32:18.787Z,100488.16
2023-01-10T04:34:45.835Z,100486.47
2023-01-10T04:37:12.957Z,100500.00
2023-01-10T04:39:40.096Z,100501.13
2023-01-10T04:42:07.266Z,100509.56
2023-01-10T04:44:34.270Z,100517.34
2023-01-10T04:47:01.301Z,100520.59
2023-01-10T04:49:28.371Z,100528.00
2023-01-10T04:51:55.507Z,100528.19
2023-01-10T04:54:23.176Z,100537.06
2023-01-10T04:56:50.619Z,100548.09
2023-01-10T04:59:17.971Z,100553.47
2023-01-10T05:01:45.324Z,100555.69
2023-01-10T05:04:13.014Z,100567.66
2023-01-10T05:06:40.623Z,100569.34
2023-01-10T05:09:10.088Z,100576.75
2023-01-10T05:11:37.292Z,100582.78
2023-01-10T05:14:04.319Z,100585.44
2023-01-10T05:16:31.467Z,100584.28
2023-01-10T05:18:58.861Z,100582.69
2023-01-10T05:21:25.955Z,100592.91
2023-01-10T05:23:53.021Z,100593.44
2023-01-10T05:26:23.535Z,100600.31
2023-01-10T05:28:50.787Z,100611.84
2023-01-10T05:31:20.000Z,100617.38
2023-01-10T05:33:51.428Z,100620.72
2023-01-10T05:36:20.129Z,100624.25
2023-01-10T05:38:47.422Z,100633.66
2023-01-10T05:41:14.579Z,100627.59
2023-01-10T05:43:41.813Z,100636.88
2023-01-10T05:46:09.255Z,100639.56
2023-01-10T05:48:36.660Z,100640.28
2023-01-10T05:51:03.980Z,100648.84
2023-01-10T05:53:31.274Z,100661.25
2023-01-10T05:56:02.367Z,100667.75
2023-01-10T05:58:30.295Z,100661.00
2023-01-10T06:00:57.979Z,100672.59
2023-01-10T06:03:27.080Z,100672.97
2023-01-10T06:05:57.169Z,100681.97
2023-01-10T06:08:25.138Z,100693.69
2023-01-10T06:10:52.522Z,100687.38
2023-01-10T06:13:19.619Z,100698.03
2023-01-10T06:15:47.160Z,100703.50
2023-01-10T06:18:14.689Z,100711.84
2023-01-10T06:20:44.177Z,100716.13
2023-01-10T06:23:11.228Z,100717.88
2023-01-10T06:25:41.537Z,100715.00
2023-01-10T06:28:13.637Z,100712.19
2023-01-10T06:30:43.408Z,100722.97
2023-01-10T06:33:14.418Z,100731.88
2023-01-10T06:35:41.616Z,100735.31
2023-01-10T06:38:08.878Z,100739.75
2023-01-10T06:40:35.953Z,100744.75
2023-01-10T06:43:02.966Z,100748.16
2023-01-10T06:45:30.358Z,100753.53
2023-01-10T06:47:57.514Z,100762.25
2023-01-10T06:50:25.036Z,100767.28
2023-01-10T06:53:01.793Z,100773.22
2023-01-10T06:55:31.033Z,100777.41
2023-01-10T06:58:01.479Z,100777.50
2023-01-10T07:00:30.228Z,100787.03
2023-01-10T07:03:02.537Z,100793.06
2023-01-10T07:05:30.605Z,100799.78
2023-01-10T07:07:59.043Z,100798.09
2023-01-10T07:10:26.163Z,100805.13
2023-01-10T07:12:56.079Z,100805.13
2023-01-10T07:15:23.229Z,100815.91
2023-01-10T07:17:50.697Z,100817.59
2023-01-10T07:20:18.861Z,100824.91
2023-01-10T07:22:58.204Z,100828.75
2023-01-10T07:25:28.807Z,100835.63
2023-01-10T07:27:55.888Z,100836.13
2023-01-10T07:30:25.344Z,100848.53
2023-01-10T07:32:57.548Z,100847.50
2023-01-10T07:35:25.977Z,100852.78
2023-01-10T07:37:56.546Z,100859.47
2023-01-10T07:40:23.883Z,100871.47
2023-01-10T07:42:55.840Z,100873.28
2023-01-10T07:45:22.985Z,100883.59
2023-01-10T07:47:50.038Z,100882.19
2023-01-10T07:50:18.125Z,100891.06
2023-01-10T07:52:45.248Z,100894.44
2023-01-10T07:55:12.605Z,100890.75
2023-01-10T07:57:39.862Z,100899.28
2023-01-10T08:00:08.204Z,100902.31
2023-01-10T08:02:35.289Z,100907.31
2023-01-10T08:05:02.489Z,100904.47
2023-01-10T08:07:31.878Z,100915.38
2023-01-10T08:09:59.473Z,100917.00
2023-01-10T08:12:26.574Z,100918.06
2023-01-10T08:14:53.957Z,100923.88
2023-01-10T08:17:21.368Z,100915.38
2023-01-10T08:19:48.381Z,100927.06
2023-01-10T08:22:15.394Z,100936.47
2023-01-10T08:24:42.423Z,100931.19
2023-01-10T08:27:09.595Z,100944.19
2023-01-10T08:29:37.028Z,100941.38
2023-01-10T08:32:04.163Z,100942.31
2023-01-10T08:34:31.248Z,100945.75
2023-01-10T08:36:58.343Z,100953.47
2023-01-10T08:39:28.159Z,100953.81
2023-01-10T08:41:55.155Z,100955.44
2023-01-10T08:44:22.176Z,100956.44
2023-01-10T08:46:49.355Z,100958.94
2023-01-10T08:49:16.652Z,100962.31
2023-01-10T08:51:44.631Z,100970.50
2023-01-10T08:54:11.727Z,100979.97
2023-01-10T08:56:40.203Z,100972.09
2023-01-10T08:59:08.341Z,100975.00
2023-01-10T09:01:35.524Z,100973.63
2023-01-10T09:04:03.064Z,100976.59
2023-01-10T09:06:30.130Z,100989.25
2023-01-10T09:08:57.102Z,100992.59
2023-01-10T09:11:24.201Z,100993.19
2023-01-10T09:13:52.053Z,100996.72
2023-01-10T09:16:21.650Z,100997.78
2023-01-10T09:18:48.713Z,101001.91
2023-01-10T09:21:16.048Z,100999.16
2023-01-10T09:23:43.632Z,101007.88
2023-01-10T09:26:11.047Z,101009.19
2023-01-10T09:28:38.300Z,101006.19
2023-01-10T09:31:08.761Z,101005.66
2023-01-10T09:33:46.269Z,101006.00
2023-01-10T09:36:15.520Z,101004.69
2023-01-10T09:38:43.141Z,101013.91
2023-01-10T09:41:59.474Z,101023.81
2023-01-10T09:45:06.129Z,101022.97
2023-01-10T09:48:04.551Z,101033.88
2023-01-10T09:51:20.096Z,101034.81
2023-01-10T09:53:50.622Z,101040.09
2023-01-10T09:56:19.607Z,101036.72
2023-01-10T09:58:47.909Z,101037.47
2023-01-10T10:01:28.015Z,101038.88
2023-01-10T10:04:34.883Z,101034.25
2023-01-10T10:07:06.409Z,101039.38
2023-01-10T10:09:35.345Z,101042.75
2023-01-10T10:13:11.600Z,101035.78
2023-01-10T10:16:18.305Z,101038.91
2023-01-10T10:19:19.388Z,101044.41
2023-01-10T10:22:20.472Z,101041.25
2023-01-10T10:25:51.142Z,101038.25
2023-01-10T10:29:14.625Z,101044.91
2023-01-10T10:32:14.484Z,101046.06
2023-01-10T10:35:01.984Z,101055.41
2023-01-10T10:37:48.063Z,101054.50
2023-01-10T10:40:14.967Z,101056.16
2023-01-10T10:42:48.265Z,101066.97
2023-01-10T10:45:44.315Z,101069.72
2023-01-10T10:48:40.956Z,101078.91
2023-01-10T10:51:26.740Z,101084.28
2023-01-10T10:53:57.587Z,101084.34
2023-01-10T10:56:26.460Z,101086.78
2023-01-10T10:58:58.544Z,101081.66
2023-01-10T11:01:27.020Z,101079.72
2023-01-10T11:04:12.671Z,101091.78
2023-01-10T11:06:48.622Z,101085.69
2023-01-10T11:09:40.687Z,101090.34
2023-01-10T11:12:15.957Z,101096.94
2023-01-10T11:14:51.219Z,101092.97
2023-01-10T11:17:27.827Z,101091.22
2023-01-10T11:20:27.345Z,101098.53
2023-01-10T11:22:54.644Z,101102.94
2023-01-10T11:25:25.534Z,101097.41
2023-01-10T11:28:01.261Z,101089.41
2023-01-10T11:30:33.360Z,101091.47
2023-01-10T11:33:17.715Z,101094.09
2023-01-10T11:36:04.558Z,101094.63
2023-01-10T11:38:32.201Z,101095.00
2023-01-10T11:41:02.127Z,101104.69
2023-01-10T11:43:41.035Z,101104.13
2023-01-10T11:46:17.671Z,101094.75
2023-01-10T11:49:08.124Z,101095.31
2023-01-10T11:51:50.434Z,101107.00
2023-01-10T11:54:25.619Z,101116.50
2023-01-10T11:57:10.142Z,101127.00
2023-01-10T11:59:39.159Z,101128.13
2023-01-10T12:02:24.289Z,101123.75
2023-01-10T12:04:53.690Z,101122.06
2023-01-10T12:07:21.007Z,101122.19
2023-01-10T12:10:03.085Z,101119.94
2023-01-10T12:12:34.738Z,101126.28
2023-01-10T12:15:31.808Z,101124.81
2023-01-10T12:18:05.368Z,101116.59
2023-01-10T12:20:47.144Z,101115.84
2023-01-10T12:23:22.143Z,101125.38
2023-01-10T12:25:53.266Z,101124.81
2023-01-10T12:28:30.063Z,101119.41
2023-01-10T12:31:00.133Z,101112.78
2023-01-10T12:33:38.776Z,101123.13
2023-01-10T12:36:15.904Z,101123.66
2023-01-10T12:39:06.310Z,101116.22
2023-01-10T12:42:43.769Z,101122.38
2023-01-10T12:45:29.503Z,101137.94
2023-01-10T12:48:28.316Z,101134.84
2023-01-10T12:51:06.124Z,101141.94
2023-01-10T12:53:44.913Z,101149.19
2023-01-10T12:56:18.716Z,101142.56
2023-01-10T12:59:03.969Z,101146.22
2023-01-10T13:01:43.341Z,101150.56
2023-01-10T13:04:17.974Z,101158.13
2023-01-10T13:06:46.049Z,101161.31
2023-01-10T13:09:23.638Z,101150.69
2023-01-10T13:12:36.543Z,101156.44
2023-01-10T13:15:34.302Z,101165.56
2023-01-10T13:18:25.858Z,101166.88
2023-01-10T13:21:19.381Z,101175.72
2023-01-10T13:23:55.218Z,101181.69
2023-01-10T13:26:22.301Z,101185.88
2023-01-10T13:29:01.140Z,101185.69
2023-01-10T13:31:35.749Z,101192.09
2023-01-10T13:34:14.703Z,101193.31
2023-01-10T13:36:51.231Z,101185.19
2023-01-10T13:39:51.359Z,101186.75
2023-01-10T13:42:50.560Z,101194.56
2023-01-10T13:45:21.336Z,101190.50
2023-01-10T13:47:57.070Z,101187.31
2023-01-10T13:50:42.092Z,101196.13
2023-01-10T13:53:12.953Z,101197.91
2023-01-10T13:55:39.970Z,101196.25
2023-01-10T13:58:15.562Z,101199.31
2023-01-10T14:01:06.163Z,101199.09
2023-01-10T14:03:58.325Z,101202.00
2023-01-10T14:06:28.340Z,101204.06
2023-01-10T14:09:22.252Z,101190.44
2023-01-10T14:12:00.365Z,101196.72
2023-01-10T14:14:39.293Z,101196.59
2023-01-10T14:17:33.107Z,101199.25
2023-01-10T14:20:12.147Z,101203.78
2023-01-10T14:22:45.041Z,101200.41
2023-01-10T14:25:22.371Z,101194.44
2023-01-10T14:27:52.377Z,101202.19
2023-01-10T14:30:32.681Z,101200.09
2023-01-10T14:33:20.273Z,101192.78
2023-01-10T14:35:56.659Z,101205.53
2023-01-10T14:38:31.461Z,101203.03
2023-01-10T14:41:18.698Z,101199.09
2023-01-10T14:44:00.146Z,101196.22
2023-01-10T14:46:56.136Z,101191.78
2023-01-10T14:49:35.586Z,101199.31
2023-01-10T14:52:25.700Z,101202.50
2023-01-10T14:55:18.118Z,101200.50
2023-01-10T14:58:02.419Z,101204.81
2023-01-10T15:00:36.711Z,101208.50
2023-01-10T15:03:04.996Z,101217.25
2023-01-10T15:05:53.860Z,101221.06
2023-01-10T15:08:29.050Z,101216.47
2023-01-10T15:11:06.708Z,101215.34
2023-01-10T15:13:50.460Z,101214.34
2023-01-10T15:16:23.344Z,101207.44
2023-01-10T15:18:51.182Z,101204.41
2023-01-10T15:21:22.005Z,101202.75
2023-01-10T15:23:50.328Z,101209.78
2023-01-10T15:26:30.739Z,101206.88
2023-01-10T15:29:19.223Z,101208.63
2023-01-10T15:31:46.741Z,101201.88
2023-01-10T15:34:28.662Z,101207.50
2023-01-10T15:37:01.422Z,101206.00
2023-01-10T15:39:39.224Z,101214.84
2023-01-10T15:42:12.395Z,101214.22
2023-01-10T15:44:55.684Z,101223.13
2023-01-10T15:47:50.091Z,101215.63
2023-01-10T15:50:38.688Z,101221.56
2023-01-10T15:53:11.267Z,101216.44
2023-01-10T15:55:54.221Z,101219.94
2023-01-10T15:58:36.431Z,101222.63
2023-01-10T16:01:04.884Z,101231.41
2023-01-10T16:03:43.881Z,101231.16
2023-01-10T16:06:36.700Z,101228.88
2023-01-10T16:09:17.108Z,101226.22
2023-01-10T16:12:11.561Z,101225.97
2023-01-10T16:14:40.320Z,101218.13
2023-01-10T16:17:07.908Z,101219.28
2023-01-10T16:19:35.116Z,101225.16
2023-01-10T16:22:02.292Z,101222.63
2023-01-10T16:24:34.035Z,101217.16
2023-01-10T16:27:06.472Z,101216.69
2023-01-10T16:29:34.296Z,101223.41
2023-01-10T16:32:01.936Z,101217.97
2023-01-10T16:34:29.775Z,101215.56
2023-01-10T16:36:57.061Z,101213.41
2023-01-10T16:39:24.309Z,101208.91
2023-01-10T16:42:10.034Z,101207.03
2023-01-10T16:44:37.054Z,101213.75
2023-01-10T16:47:06.918Z,101209.41
2023-01-10T16:49:34.444Z,101217.13
2023-01-10T16:52:01.602Z,101207.97
2023-01-10T16:54:28.661Z,101214.75
2023-01-10T16:56:55.978Z,101221.88
2023-01-10T16:59:23.230Z,101210.88
2023-01-10T17:01:58.202Z,101226.25
2023-01-10T17:04:30.675Z,101220.78
2023-01-10T17:06:59.055Z,101215.59
2023-01-10T17:09:30.805Z,101218.97
2023-01-10T17:12:19.498Z,101213.47
2023-01-10T17:14:48.186Z,101218.47
2023-01-10T17:17:15.258Z,101215.72
2023-01-10T17:19:43.193Z,101218.47
2023-01-10T17:22:10.199Z,101207.78
2023-01-10T17:24:37.199Z,101209.47
2023-01-10T17:27:04.500Z,101207.78
2023-01-10T17:29:33.728Z,101209.31
2023-01-10T17:32:01.096Z,101213.50
2023-01-10T17:34:30.997Z,101204.97
2023-01-10T17:36:58.023Z,101213.81
2023-01-10T17:39:25.179Z,101226.59
2023-01-10T17:41:52.272Z,101226.91
2023-01-10T17:44:19.329Z,101226.81
2023-01-10T17:46:48.863Z,101226.75
2023-01-10T17:49:16.010Z,101223.22
2023-01-10T17:51:43.208Z,101222.84
2023-01-10T17:54:10.248Z,101229.06
2023-01-10T17:56:37.316Z,101218.97
2023-01-10T17:59:04.328Z,101227.38
2023-01-10T18:01:31.653Z,101221.56
2023-01-10T18:03:58.750Z,101214.81
2023-01-10T18:06:25.851Z,101224.16
2023-01-10T18:08:54.070Z,101224.63
2023-01-10T18:11:24.992Z,101219.44
2023-01-10T18:13:52.205Z,101211.50
2023-01-10T18:16:19.307Z,101210.66
2023-01-10T18:18:46.374Z,101210.09
2023-01-10T18:21:18.124Z,101212.13
2023-01-10T18:23:48.169Z,101208.59
2023-01-10T18:26:15.312Z,101215.56
2023-01-10T18:28:44.331Z,101213.03
2023-01-10T18:31:18.566Z,101206.59
2023-01-10T18:33:47.867Z,101212.41
2023-01-10T18:36:22.090Z,101199.34
2023-01-10T18:38:52.388Z,101210.78
2023-01-10T18:41:22.809Z,101201.31
2023-01-10T18:43:52.338Z,101203.06
2023-01-10T18:46:22.643Z,101201.56
2023-01-10T18:48:52.798Z,101207.91
2023-01-10T18:51:20.181Z,101198.94
2023-01-10T18:53:48.892Z,101193.63
2023-01-10T18:56:17.149Z,101195.16
2023-01-10T18:58:44.912Z,101187.78
2023-01-10T19:01:20.044Z,101186.56
2023-01-10T19:03:47.957Z,101187.50
2023-01-10T19:06:18.954Z,101190.22
2023-01-10T19:08:47.221Z,101191.44
2023-01-10T19:11:16.584Z,101184.78
2023-01-10T19:13:47.280Z,101186.84
2023-01-10T19:16:26.092Z,101185.03
2023-01-10T19:19:00.954Z,101187.81
2023-01-10T19:21:31.212Z,101186.34
2023-01-10T19:24:37.819Z,101178.56
2023-01-10T19:27:11.593Z,101176.53
2023-01-10T19:29:41.789Z,101172.03
2023-01-10T19:32:09.150Z,101175.63
2023-01-10T19:34:37.450Z,101166.31
2023-01-10T19:37:05.634Z,101163.72
2023-01-10T19:39:33.810Z,101163.88
2023-01-10T19:42:01.005Z,101153.22
2023-01-10T19:44:28.534Z,101158.34
2023-01-10T19:46:55.758Z,101150.50
2023-01-10T19:49:24.091Z,101157.50
2023-01-10T19:51:53.678Z,101157.56
2023-01-10T19:54:27.059Z,101153.59
2023-01-10T19:56:57.178Z,101145.38
2023-01-10T19:59:25.019Z,101151.13
2023-01-10T20:01:52.275Z,101145.19
2023-01-10T20:04:21.921Z,101140.00
2023-01-10T20:06:49.353Z,101133.31
2023-01-10T20:09:16.607Z,101130.53
2023-01-10T20:11:46.081Z,101138.38
2023-01-10T20:14:21.448Z,101135.25
2023-01-10T20:16:50.997Z,101126.97
2023-01-10T20:19:18.339Z,101127.38
2023-01-10T20:21:45.578Z,101125.50
2023-01-10T20:24:19.473Z,101123.88
2023-01-10T20:26:49.659Z,101124.66
2023-01-10T20:29:18.559Z,101128.22
2023-01-10T20:31:48.083Z,101123.13
2023-01-10T20:34:15.261Z,101114.38
2023-01-10T20:36:42.365Z,101113.72
2023-01-10T20:39:09.421Z,101109.03
2023-01-10T20:41:37.208Z,101113.59
2023-01-10T20:44:04.360Z,101106.38
2023-01-10T20:46:33.850Z,101116.09
2023-01-10T20:49:02.788Z,101109.41
2023-01-10T20:51:35.305Z,101109.72
2023-01-10T20:54:04.867Z,101103.19
2023-01-10T20:56:33.118Z,101109.91
2023-01-10T20:59:00.227Z,101105.56
2023-01-10T21:01:34.672Z,101103.25
2023-01-10T21:04:05.742Z,101103.88
2023-01-10T21:06:33.732Z,101109.06
2023-01-10T21:09:00.938Z,101108.63
2023-01-10T21:11:28.194Z,101103.56
2023-01-10T21:13:55.410Z,101102.78
2023-01-10T21:16:22.894Z,101103.72
2023-01-10T21:18:50.715Z,101097.97
2023-01-10T21:21:22.469Z,101096.34
2023-01-10T21:24:01.009Z,101093.88
2023-01-10T21:26:28.035Z,101087.94
2023-01-10T21:28:55.025Z,101088.84
2023-01-10T21:31:22.481Z,101092.22
2023-01-10T21:33:50.152Z,101083.50
2023-01-10T21:36:17.896Z,101074.84
2023-01-10T21:38:45.210Z,101075.84
2023-01-10T21:41:40.075Z,101068.28
2023-01-10T21:44:08.425Z,101073.84
2023-01-10T21:46:36.045Z,101064.41
2023-01-10T21:49:05.099Z,101069.69
2023-01-10T21:51:32.526Z,101068.06
2023-01-10T21:53:59.819Z,101064.41
2023-01-10T21:56:26.921Z,101060.13
2023-01-10T21:58:53.956Z,101047.97
2023-01-10T22:01:21.047Z,101047.97
2023-01-10T22:03:49.447Z,101042.13
2023-01-10T22:06:16.584Z,101050.56
2023-01-10T22:08:43.779Z,101043.94
2023-01-10T22:11:11.456Z,101044.47
2023-01-10T22:13:39.063Z,101033.66
2023-01-10T22:16:09.452Z,101036.31
2023-01-10T22:18:36.658Z,101031.00
2023-01-10T22:21:03.745Z,101032.81
2023-01-10T22:23:31.240Z,101033.53
2023-01-10T22:26:14.043Z,101029.97
2023-01-10T22:28:42.168Z,101026.50
2023-01-10T22:31:09.473Z,101024.75
2023-01-10T22:33:38.418Z,101017.94
2023-01-10T22:36:15.399Z,101020.97
2023-01-10T22:38:43.589Z,101008.25
2023-01-10T22:41:18.223Z,101006.94
2023-01-10T22:43:46.395Z,101006.72
2023-01-10T22:46:15.712Z,100994.72
2023-01-10T22:48:43.440Z,101006.72
2023-01-10T22:51:10.917Z,101002.28
2023-01-10T22:53:38.002Z,100987.06
2023-01-10T22:56:10.422Z,100980.16
2023-01-10T22:58:38.309Z,100981.13
2023-01-10T23:01:07.783Z,100967.69
2023-01-10T23:03:34.970Z,100971.47
2023-01-10T23:06:02.112Z,100967.41
2023-01-10T23:08:29.166Z,100962.66
2023-01-10T23:10:56.171Z,100964.19
2023-01-10T23:13:24.906Z,100964.75
2023-01-10T23:16:01.147Z,100962.72
2023-01-10T23:18:28.847Z,100965.03
2023-01-10T23:20:56.662Z,100956.06
2023-01-10T23:23:25.920Z,100945.31
2023-01-10T23:26:02.936Z,100957.06
2023-01-10T23:28:38.792Z,100951.19
2023-01-10T23:31:07.559Z,100951.59
2023-01-10T23:33:35.046Z,100939.41
2023-01-10T23:36:02.819Z,100933.78
2023-01-10T23:38:30.078Z,100926.91
2023-01-10T23:40:57.948Z,100926.75
2023-01-10T23:43:27.642Z,100916.75
2023-01-10T23:45:54.761Z,100915.66
2023-01-10T23:48:22.218Z,100907.19
2023-01-10T23:50:52.743Z,100908.22
2023-01-10T23:53:20.301Z,100902.06
2023-01-10T23:55:47.537Z,100899.81
2023-01-10T23:58:16.267Z,100899.81
